Time;durP1;ratioP1;P1;durP2;ratioP2;P2;SDS_P1;SDS_P2;PMS_P1;PMS_P2;Temp;Humidity;BMP_temperature;BMP_pressure;BME280_temperature;BME280_humidity;BME280_pressure;Samples;Min_cycle;Max_cycle;Signal;HPM_P1;HPM_P2
2023/01/25 00:01:21;;;;;;;44.97;23.33;;;;;;;0.13;90.99;103416.25;5061565;28;20051;-80
2023/01/25 00:03:46;;;;;;;41.83;21.88;;;;;;;0.06;91.96;103403.59;5041916;28;20054;-82
2023/01/25 00:06:11;;;;;;;42.05;23.00;;;;;;;0.04;92.28;103411.31;5045685;28;20032;-82
2023/01/25 00:08:37;;;;;;;48.50;24.83;;;;;;;0.04;92.87;103406.19;5039991;28;20042;-81
2023/01/25 00:11:03;;;;;;;53.45;25.48;;;;;;;0.05;93.27;103397.66;5041369;28;20032;-81
2023/01/25 00:13:29;;;;;;;54.70;27.17;;;;;;;0.02;92.85;103395.19;5043546;28;20546;-82
2023/01/25 00:16:03;;;;;;;47.85;25.08;;;;;;;0.02;92.86;103405.38;5040162;28;20040;-80
2023/01/25 00:18:29;;;;;;;44.20;24.73;;;;;;;0.05;92.92;103395.09;5028420;28;20398;-79
2023/01/25 00:20:54;;;;;;;45.20;23.70;;;;;;;0.07;93.07;103398.47;5059866;28;20043;-82
2023/01/25 00:23:20;;;;;;;45.95;23.30;;;;;;;0.09;93.47;103396.75;5046191;28;20029;-81
2023/01/25 00:25:45;;;;;;;53.17;25.58;;;;;;;0.11;93.68;103389.91;5043222;28;20039;-81
2023/01/25 00:28:11;;;;;;;45.72;24.67;;;;;;;0.10;93.61;103395.88;5045753;28;23118;-82
2023/01/25 00:30:36;;;;;;;46.47;24.15;;;;;;;0.10;93.46;103388.22;5042935;28;20025;-81
2023/01/25 00:33:37;;;;;;;48.20;25.73;;;;;;;0.08;94.13;103389.97;5044447;28;20716;-80
2023/01/25 00:36:35;;;;;;;50.28;25.35;;;;;;;0.08;93.63;103384.88;5042717;28;20044;-80
2023/01/25 00:39:03;;;;;;;46.33;23.67;;;;;;;0.07;93.78;103379.78;5033997;28;20037;-81
2023/01/25 00:41:29;;;;;;;47.15;24.63;;;;;;;0.07;93.56;103383.16;5046359;28;20060;-81
2023/01/25 00:43:55;;;;;;;49.55;24.25;;;;;;;0.08;93.70;103376.38;5047672;28;20052;-80
2023/01/25 00:46:20;;;;;;;44.17;23.50;;;;;;;0.07;93.67;103375.50;5037724;28;20047;-81
2023/01/25 00:48:46;;;;;;;49.42;25.30;;;;;;;0.07;93.56;103369.56;5050553;28;20037;-81
2023/01/25 00:51:12;;;;;;;45.65;24.35;;;;;;;0.08;93.48;103363.63;5063187;28;20028;-82
2023/01/25 00:53:38;;;;;;;43.60;23.15;;;;;;;0.05;94.02;103364.50;5042404;28;20037;-81
2023/01/25 00:56:04;;;;;;;45.70;24.05;;;;;;;0.15;93.84;103368.59;5046885;28;20036;-82
2023/01/25 00:58:30;;;;;;;45.50;24.00;;;;;;;0.08;93.16;103363.63;5025081;28;20058;-81
2023/01/25 01:00:56;;;;;;;50.38;25.75;;;;;;;0.03;93.57;103365.41;5059460;28;20032;-82
2023/01/25 01:03:23;;;;;;;45.15;23.42;;;;;;;0.02;93.36;103361.16;5060189;28;20397;-81
2023/01/25 01:05:58;;;;;;;49.08;24.40;;;;;;;0.02;94.07;103371.34;5058157;28;20038;-82
2023/01/25 01:08:24;;;;;;;48.50;25.95;;;;;;;0.03;93.76;103365.41;5040964;28;20506;-80
2023/01/25 01:10:49;;;;;;;49.97;26.20;;;;;;;0.01;93.89;103364.56;5051081;28;20036;-81
2023/01/25 01:13:16;;;;;;;51.67;25.77;;;;;;;-0.01;94.13;103355.22;5044348;28;20044;-82
2023/01/25 01:15:42;;;;;;;50.45;25.90;;;;;;;0.00;94.18;103361.19;5057037;28;20032;-81
2023/01/25 01:18:07;;;;;;;47.70;25.23;;;;;;;-0.02;94.11;103360.34;5054849;28;20094;-82
2023/01/25 01:20:33;;;;;;;47.05;24.33;;;;;;;-0.02;94.12;103357.81;5036589;28;20635;-82
2023/01/25 01:22:58;;;;;;;52.22;25.00;;;;;;;-0.06;94.26;103359.59;5058469;28;20029;-81
2023/01/25 01:25:24;;;;;;;48.40;23.98;;;;;;;-0.06;94.79;103366.38;5041892;28;20250;-80
2023/01/25 01:27:49;;;;;;;45.85;23.20;;;;;;;-0.04;94.45;103364.63;5047411;28;20049;-81
2023/01/25 01:30:15;;;;;;;48.38;24.33;;;;;;;-0.07;94.74;103374.91;5056299;28;20032;-81
2023/01/25 01:32:40;;;;;;;56.13;23.30;;;;;;;-0.09;94.51;103369.00;5038882;28;20114;-81
2023/01/25 01:35:06;;;;;;;44.80;23.35;;;;;;;-0.08;94.63;103368.09;5029602;28;20041;-80
2023/01/25 01:37:32;;;;;;;47.92;25.33;;;;;;;-0.08;94.78;103357.91;5037503;28;20132;-82
2023/01/25 01:39:57;;;;;;;52.10;26.02;;;;;;;-0.06;94.91;103367.25;5041664;28;20091;-83
2023/01/25 01:42:23;;;;;;;48.00;24.70;;;;;;;-0.06;94.20;103361.28;5044527;28;20056;-80
2023/01/25 01:44:51;;;;;;;54.72;24.65;;;;;;;-0.06;94.34;103362.13;5046797;28;20076;-81
2023/01/25 01:47:26;;;;;;;49.72;24.65;;;;;;;-0.12;94.46;103363.94;5053120;28;20052;-81
2023/01/25 01:50:21;;;;;;;48.83;25.80;;;;;;;-0.16;94.20;103360.56;5033399;28;20036;-81
2023/01/25 01:52:48;;;;;;;45.40;23.65;;;;;;;-0.18;94.19;103361.47;5038413;28;20041;-81
2023/01/25 01:55:17;;;;;;;53.17;25.67;;;;;;;-0.16;94.46;103362.28;5046216;28;20036;-81
2023/01/25 01:57:50;;;;;;;49.60;26.38;;;;;;;-0.23;94.56;103353.88;5046418;28;20033;-81
2023/01/25 02:00:26;;;;;;;49.38;25.17;;;;;;;-0.26;94.44;103357.34;5061050;28;20531;-82
2023/01/25 02:02:54;;;;;;;50.08;24.63;;;;;;;-0.25;94.98;103350.50;5030142;28;20126;-82
2023/01/25 02:05:41;;;;;;;50.50;25.67;;;;;;;-0.21;95.46;103349.59;5047627;28;20022;-81
2023/01/25 02:08:11;;;;;;;50.03;25.40;;;;;;;-0.16;95.14;103349.53;5044272;28;20086;-81
2023/01/25 02:10:38;;;;;;;49.47;25.23;;;;;;;-0.14;95.80;103347.81;5030235;28;20047;-83
2023/01/25 02:13:04;;;;;;;50.83;25.92;;;;;;;-0.11;95.35;103352.88;5051176;28;20041;-80
2023/01/25 02:15:40;;;;;;;43.28;23.42;;;;;;;-0.12;95.21;103349.44;5046081;28;21719;-81
2023/01/25 02:18:08;;;;;;;42.45;22.92;;;;;;;-0.12;95.22;103348.63;5044696;28;20086;-80
2023/01/25 02:20:47;;;;;;;47.33;24.98;;;;;;;-0.13;95.00;103347.78;5049611;28;20036;-80
2023/01/25 02:23:51;;;;;;;50.72;24.02;;;;;;;-0.12;94.76;103348.63;5048771;28;20568;-81
2023/01/25 02:26:20;;;;;;;48.38;25.17;;;;;;;-0.10;94.68;103346.88;5044988;28;20036;-81
2023/01/25 02:28:52;;;;;;;44.63;24.52;;;;;;;-0.10;95.27;103340.06;5020002;28;20039;-80
2023/01/25 02:31:22;;;;;;;48.08;24.35;;;;;;;-0.10;95.09;103341.78;5015551;28;20065;-81
2023/01/25 02:33:47;;;;;;;48.05;24.98;;;;;;;-0.10;95.05;103344.34;5012097;28;20124;-82
2023/01/25 02:36:18;;;;;;;47.03;24.27;;;;;;;-0.09;94.94;103339.22;5033433;28;20029;-80
2023/01/25 02:38:53;;;;;;;49.85;24.98;;;;;;;-0.12;94.74;103351.16;5059382;28;20435;-81
2023/01/25 02:41:24;;;;;;;49.25;24.98;;;;;;;-0.16;94.55;103350.38;5058672;28;20516;-81
2023/01/25 02:43:50;;;;;;;47.67;25.02;;;;;;;-0.15;94.42;103338.47;5044313;28;20494;-83
2023/01/25 02:46:26;;;;;;;51.47;25.63;;;;;;;-0.15;94.66;103338.47;5047911;28;20081;-81
2023/01/25 02:48:53;;;;;;;54.85;26.08;;;;;;;-0.17;94.83;103338.50;5059544;28;20094;-81
2023/01/25 02:51:19;;;;;;;55.00;27.50;;;;;;;-0.23;95.00;103338.56;5060288;28;20033;-80
2023/01/25 02:53:45;;;;;;;50.72;25.50;;;;;;;-0.26;94.51;103334.38;5045158;28;20576;-81
2023/01/25 02:56:11;;;;;;;46.90;24.50;;;;;;;-0.27;94.43;103331.84;5029845;28;20098;-82
2023/01/25 02:58:36;;;;;;;46.60;24.63;;;;;;;-0.26;94.46;103336.94;5042859;28;20041;-82
2023/01/25 03:01:02;;;;;;;45.40;24.73;;;;;;;-0.26;94.63;103333.53;5030034;28;20029;-81
2023/01/25 03:03:27;;;;;;;49.75;24.75;;;;;;;-0.24;94.13;103330.09;5045681;28;20454;-80
2023/01/25 03:05:53;;;;;;;45.75;23.60;;;;;;;-0.28;94.58;103336.13;5030337;28;20032;-81
2023/01/25 03:08:18;;;;;;;55.03;26.27;;;;;;;-0.27;94.32;103332.69;5044833;28;20555;-82
2023/01/25 03:10:46;;;;;;;52.58;27.33;;;;;;;-0.25;93.98;103336.03;5061820;28;20036;-82
2023/01/25 03:13:13;;;;;;;49.95;26.67;;;;;;;-0.27;94.80;103337.78;5046808;28;20048;-81
2023/01/25 03:15:38;;;;;;;57.75;28.85;;;;;;;-0.24;94.90;103342.00;5060509;28;20037;-82
2023/01/25 03:18:04;;;;;;;55.42;27.33;;;;;;;-0.24;94.85;103337.75;5046404;28;20036;-82
2023/01/25 03:20:30;;;;;;;51.35;26.15;;;;;;;-0.26;95.28;103334.38;5028194;28;20044;-80
2023/01/25 03:22:55;;;;;;;48.30;25.50;;;;;;;-0.28;95.02;103333.56;5043614;28;20106;-82
2023/01/25 03:25:21;;;;;;;47.97;25.02;;;;;;;-0.27;95.61;103332.69;5043242;28;20026;-81
2023/01/25 03:27:56;;;;;;;51.47;27.30;;;;;;;-0.20;94.98;103323.25;5045114;28;20037;-82
2023/01/25 03:30:21;;;;;;;50.97;26.65;;;;;;;-0.21;94.64;103319.84;5044808;28;20035;-82
2023/01/25 03:32:47;;;;;;;56.20;26.55;;;;;;;-0.16;94.75;103317.22;5044541;28;20490;-81
2023/01/25 03:35:17;;;;;;;54.22;26.90;;;;;;;-0.20;94.94;103318.13;5045471;28;20160;-82
2023/01/25 03:37:42;;;;;;;56.33;27.38;;;;;;;-0.28;94.92;103322.53;5043277;28;20045;-82
2023/01/25 03:40:09;;;;;;;59.85;27.92;;;;;;;-0.30;95.07;103317.44;5030733;28;20033;-80
2023/01/25 03:42:35;;;;;;;53.72;26.85;;;;;;;-0.25;95.00;103314.81;5057549;28;20036;-82
2023/01/25 03:45:02;;;;;;;56.33;27.33;;;;;;;-0.23;94.62;103307.97;5053037;28;20025;-82
2023/01/25 03:47:27;;;;;;;57.28;26.58;;;;;;;-0.21;94.35;103306.25;5050964;28;20091;-83
2023/01/25 03:49:53;;;;;;;50.75;24.65;;;;;;;-0.21;94.41;103301.13;5047226;28;20047;-81
2023/01/25 03:52:18;;;;;;;55.72;26.40;;;;;;;-0.14;93.92;103302.72;5046687;28;20044;-81
2023/01/25 03:54:45;;;;;;;48.33;24.90;;;;;;;-0.27;94.59;103296.16;5042181;28;20482;-82
2023/01/25 03:57:12;;;;;;;49.78;25.13;;;;;;;-0.29;95.12;103292.78;5045004;28;20037;-82
2023/01/25 03:59:49;;;;;;;50.92;25.08;;;;;;;-0.31;95.41;103299.63;5041961;28;20029;-80
2023/01/25 04:02:14;;;;;;;53.03;26.90;;;;;;;-0.30;95.70;103293.63;5042696;28;20078;-81
2023/01/25 04:04:40;;;;;;;54.97;27.58;;;;;;;-0.28;95.55;103299.56;5041558;28;20037;-82
2023/01/25 04:07:07;;;;;;;48.90;25.67;;;;;;;-0.23;95.51;103292.66;5026380;28;20033;-81
2023/01/25 04:09:35;;;;;;;50.58;25.63;;;;;;;-0.21;94.35;103293.47;5045056;28;20033;-80
2023/01/25 04:12:00;;;;;;;53.58;26.83;;;;;;;-0.30;94.85;103289.41;5045088;28;20055;-81
2023/01/25 04:14:26;;;;;;;52.30;27.27;;;;;;;-0.31;95.45;103291.97;5041165;28;20044;-81
2023/01/25 04:16:59;;;;;;;53.33;27.42;;;;;;;-0.30;95.45;103286.84;5027238;28;20049;-82
2023/01/25 04:19:48;;;;;;;49.60;25.35;;;;;;;-0.31;95.65;103284.31;5041568;28;20075;-82
2023/01/25 04:22:17;;;;;;;55.67;26.50;;;;;;;-0.30;95.90;103281.75;5025785;28;20035;-79
2023/01/25 04:24:43;;;;;;;54.70;25.80;;;;;;;-0.28;96.31;103284.28;5043404;28;20381;-82
2023/01/25 04:27:08;;;;;;;56.60;28.20;;;;;;;-0.27;96.24;103275.75;5040317;28;20086;-82
2023/01/25 04:29:41;;;;;;;;;;;;;;;-0.26;96.70;103268.06;5028360;28;20029;-82
2023/01/25 04:32:07;;;;;;;52.55;25.42;;;;;;;-0.28;96.31;103269.81;5041380;28;19921;-80
2023/01/25 04:34:33;;;;;;;60.72;28.80;;;;;;;-0.27;96.54;103263.81;5042433;28;20513;-82
2023/01/25 04:37:00;;;;;;;89.68;40.53;;;;;;;-0.26;96.51;103262.13;5043699;28;20493;-81
2023/01/25 04:39:30;;;;;;;71.30;33.25;;;;;;;-0.27;96.94;103260.44;5044583;28;20128;-82
2023/01/25 04:41:56;;;;;;;83.60;37.33;;;;;;;-0.20;96.71;103254.38;5045259;28;20400;-81
2023/01/25 04:44:21;;;;;;;180.35;71.50;;;;;;;-0.21;96.72;103252.69;5045947;28;20095;-81
2023/01/25 04:46:48;;;;;;;177.90;69.00;;;;;;;-0.26;96.71;103245.13;5042879;28;20536;-82
2023/01/25 04:49:14;;;;;;;121.90;49.58;;;;;;;-0.26;97.32;103240.03;5044387;28;20029;-83
2023/01/25 04:51:39;;;;;;;61.67;29.65;;;;;;;-0.24;97.21;103245.09;5044688;28;20040;-81
2023/01/25 04:54:05;;;;;;;59.08;28.95;;;;;;;-0.26;97.66;103245.13;5058611;28;20033;-82
2023/01/25 04:56:32;;;;;;;55.65;27.15;;;;;;;-0.23;97.72;103241.66;5043947;28;20131;-81
2023/01/25 04:58:58;;;;;;;53.47;26.55;;;;;;;-0.22;97.78;103239.09;5039943;28;20048;-81
2023/01/25 05:01:23;;;;;;;56.30;27.23;;;;;;;-0.25;97.50;103236.59;5041979;28;20066;-82
2023/01/25 05:03:50;;;;;;;54.03;26.10;;;;;;;-0.26;97.56;103234.91;5044146;28;20493;-81
2023/01/25 05:06:33;;;;;;;53.97;25.20;;;;;;;-0.27;97.85;103233.22;5041599;28;20386;-80
2023/01/25 05:08:59;;;;;;;58.80;26.02;;;;;;;-0.27;98.20;103230.66;5027619;28;20029;-81
2023/01/25 05:11:24;;;;;;;57.25;28.48;;;;;;;-0.25;98.30;103231.47;5047606;28;20025;-80
2023/01/25 05:13:57;;;;;;;57.67;26.52;;;;;;;-0.26;98.24;103236.63;5061443;28;20068;-83
2023/01/25 05:16:29;;;;;;;54.67;26.13;;;;;;;-0.26;98.55;103236.63;5046885;28;20032;-82
2023/01/25 05:18:54;;;;;;;49.53;26.52;;;;;;;-0.26;98.58;103231.53;5028196;28;20526;-82
2023/01/25 05:24:09;;;;;;;56.13;26.55;;;;;;;-0.30;97.93;103228.19;5063955;28;20079;-81
2023/01/25 05:29:19;;;;;;;56.95;27.92;;;;;;;-0.31;98.40;103221.41;5042227;28;20132;-80
2023/01/25 05:31:51;;;;;;;57.22;27.52;;;;;;;-0.30;98.33;103222.22;5042437;28;20025;-80
2023/01/25 05:34:17;;;;;;;59.30;29.15;;;;;;;-0.20;98.08;103229.69;5046027;28;20040;-82
2023/01/25 05:36:42;;;;;;;62.53;28.15;;;;;;;-0.22;97.71;103223.78;5042236;28;20066;-81
2023/01/25 05:39:08;;;;;;;86.53;34.65;;;;;;;-0.24;98.51;103220.44;5047582;28;20052;-82
2023/01/25 05:41:34;;;;;;;76.15;31.10;;;;;;;-0.25;98.51;103223.84;5041403;28;20037;-82
2023/01/25 05:44:00;;;;;;;68.47;29.77;;;;;;;-0.11;98.65;103221.06;5026803;28;20044;-81
2023/01/25 05:46:27;;;;;;;55.50;25.67;;;;;;;-0.18;98.70;103221.19;5063303;28;20025;-81
2023/01/25 05:48:52;;;;;;;62.20;25.88;;;;;;;-0.24;99.07;103225.53;5026719;28;20107;-82
2023/01/25 05:51:19;;;;;;;58.20;24.75;;;;;;;-0.29;99.47;103213.72;5042472;28;20032;-82
2023/01/25 05:53:46;;;;;;;58.55;26.20;;;;;;;-0.15;99.12;103218.56;5043193;28;20033;-82
2023/01/25 05:56:12;;;;;;;55.55;24.83;;;;;;;-0.27;98.85;103212.81;5058193;28;20029;-81
2023/01/25 05:58:39;;;;;;;69.53;28.88;;;;;;;-0.30;99.74;103212.91;5042074;28;20098;-81
2023/01/25 06:01:06;;;;;;;58.50;25.15;;;;;;;-0.26;99.97;103214.53;5046866;28;20041;-80
2023/01/25 06:03:41;;;;;;;61.38;26.23;;;;;;;-0.30;100.00;103220.53;5046849;28;20029;-81
2023/01/25 06:06:07;;;;;;;64.18;25.83;;;;;;;-0.40;100.00;103219.00;5041602;28;20021;-81
2023/01/25 06:08:34;;;;;;;66.32;27.85;;;;;;;-0.35;100.00;103217.22;5041057;28;20064;-81
2023/01/25 06:11:25;;;;;;;62.28;27.27;;;;;;;-0.41;100.00;103218.16;5045943;28;20286;-80
2023/01/25 06:13:52;;;;;;;66.72;27.65;;;;;;;-0.40;100.00;103216.44;5043124;28;20071;-80
2023/01/25 06:16:19;;;;;;;68.05;27.95;;;;;;;-0.38;100.00;103211.34;5059422;28;20029;-81
2023/01/25 06:19:17;;;;;;;65.50;26.75;;;;;;;-0.36;100.00;103209.59;5035872;28;20099;-81
2023/01/25 06:22:08;;;;;;;65.38;27.20;;;;;;;-0.32;100.00;103208.66;5048252;28;20567;-79
2023/01/25 06:24:33;;;;;;;64.28;28.40;;;;;;;-0.28;100.00;103208.59;5060043;28;20048;-82
2023/01/25 06:26:58;;;;;;;69.38;28.38;;;;;;;-0.16;100.00;103216.91;5040569;28;20033;-82
2023/01/25 06:29:24;;;;;;;68.35;27.40;;;;;;;-0.19;100.00;103210.13;5051027;28;20445;-81
2023/01/25 06:31:49;;;;;;;67.10;27.05;;;;;;;-0.26;100.00;103206.88;5066270;28;20036;-81
2023/01/25 06:34:15;;;;;;;72.63;29.15;;;;;;;-0.31;100.00;103213.75;5050384;28;20059;-82
2023/01/25 06:36:42;;;;;;;61.38;26.77;;;;;;;-0.31;100.00;103212.91;5049979;28;20033;-82
2023/01/25 06:39:08;;;;;;;73.50;32.28;;;;;;;-0.36;100.00;103215.53;5043094;28;20034;-82
2023/01/25 06:41:33;;;;;;;76.82;32.60;;;;;;;-0.25;100.00;103207.69;5065532;28;20033;-79
2023/01/25 06:43:59;;;;;;;70.40;31.17;;;;;;;-0.17;100.00;103198.22;5046176;28;20513;-82
2023/01/25 06:46:24;;;;;;;66.75;30.00;;;;;;;-0.21;100.00;103202.53;5061398;28;20044;-82
2023/01/25 06:48:50;;;;;;;64.50;29.63;;;;;;;-0.25;99.73;103208.53;5057440;28;20509;-80
2023/01/25 06:51:16;;;;;;;75.30;32.50;;;;;;;-0.32;99.51;103208.66;5060743;28;20036;-82
2023/01/25 06:53:43;;;;;;;72.22;31.83;;;;;;;-0.41;99.93;103204.59;5063079;28;20033;-83
2023/01/25 06:56:12;;;;;;;71.75;28.67;;;;;;;-0.46;100.00;103209.75;5065929;28;20477;-83
2023/01/25 06:58:38;;;;;;;71.88;31.52;;;;;;;-0.48;100.00;103208.09;5044323;28;20429;-82
2023/01/25 07:01:07;;;;;;;75.38;30.80;;;;;;;-0.50;100.00;103210.66;5049560;28;20041;-80
2023/01/25 07:03:33;;;;;;;68.18;28.02;;;;;;;-0.48;100.00;103206.38;5048033;28;20094;-81
2023/01/25 07:06:05;;;;;;;61.05;26.85;;;;;;;-0.47;100.00;103212.31;5065455;28;20055;-81
2023/01/25 07:08:32;;;;;;;70.15;29.77;;;;;;;-0.44;100.00;103208.00;5048563;28;20107;-81
2023/01/25 07:11:00;;;;;;;77.35;30.70;;;;;;;-0.37;100.00;103213.03;5051170;28;20044;-82
2023/01/25 07:13:27;;;;;;;79.70;33.65;;;;;;;-0.36;100.00;103212.16;5052086;28;20833;-82
2023/01/25 07:15:56;;;;;;;76.43;32.95;;;;;;;-0.41;100.00;103209.69;5049962;28;20398;-81
2023/01/25 07:18:23;;;;;;;68.43;30.00;;;;;;;-0.41;100.00;103212.22;5049380;28;20032;-82
2023/01/25 07:20:49;;;;;;;71.80;30.80;;;;;;;-0.41;100.00;103205.41;5065535;28;20051;-82
2023/01/25 07:23:15;;;;;;;75.03;32.45;;;;;;;-0.34;100.00;103201.06;5047073;28;20029;-83
2023/01/25 07:25:48;;;;;;;78.30;33.38;;;;;;;-0.23;100.00;103203.41;5045997;28;20032;-81
2023/01/25 07:28:14;;;;;;;70.18;29.85;;;;;;;-0.28;100.00;103206.06;5031782;28;20040;-83
2023/01/25 07:30:41;;;;;;;70.57;29.02;;;;;;;-0.39;100.00;103213.06;5051869;28;20028;-83
2023/01/25 07:33:07;;;;;;;67.00;29.85;;;;;;;-0.44;100.00;103204.63;5064379;28;20270;-82
2023/01/25 07:35:32;;;;;;;76.38;30.55;;;;;;;-0.45;100.00;103208.91;5051281;28;20037;-81
2023/01/25 07:37:58;;;;;;;73.55;29.80;;;;;;;-0.45;100.00;103210.59;5062965;28;20041;-82
2023/01/25 07:40:24;;;;;;;73.47;31.08;;;;;;;-0.41;100.00;103205.41;5062219;28;20036;-80
2023/01/25 07:42:52;;;;;;;81.32;34.20;;;;;;;-0.40;100.00;103209.66;5062845;28;20379;-80
2023/01/25 07:45:18;;;;;;;77.32;31.60;;;;;;;-0.38;100.00;103196.88;5062484;28;20029;-81
2023/01/25 07:47:44;;;;;;;70.38;29.95;;;;;;;-0.27;100.00;103205.16;5031283;28;20043;-81
2023/01/25 07:50:10;;;;;;;64.65;27.38;;;;;;;-0.31;100.00;103210.38;5059671;28;20044;-82
2023/01/25 07:52:36;;;;;;;69.97;30.05;;;;;;;-0.36;100.00;103204.50;5048987;28;20568;-82
2023/01/25 07:55:02;;;;;;;70.75;29.48;;;;;;;-0.37;100.00;103207.94;5044720;28;20029;-82
2023/01/25 07:57:27;;;;;;;78.72;31.30;;;;;;;-0.36;100.00;103205.31;5048057;28;20045;-81
2023/01/25 07:59:53;;;;;;;78.25;31.58;;;;;;;-0.44;100.00;103197.81;5051480;28;20032;-81
2023/01/25 08:02:18;;;;;;;84.95;32.95;;;;;;;-0.44;100.00;103199.53;5042430;28;20649;-81
2023/01/25 08:04:44;;;;;;;69.05;29.73;;;;;;;-0.44;100.00;103202.09;5062560;28;20030;-81
2023/01/25 08:07:10;;;;;;;75.38;31.23;;;;;;;-0.48;100.00;103203.00;5029535;28;20239;-82
2023/01/25 08:09:36;;;;;;;74.82;30.48;;;;;;;-0.44;100.00;103197.81;5050014;28;20045;-82
2023/01/25 08:12:01;;;;;;;74.35;31.25;;;;;;;-0.47;100.00;103197.88;5061516;28;20091;-79
2023/01/25 08:14:27;;;;;;;73.97;30.00;;;;;;;-0.54;100.00;103186.09;5046660;28;20024;-81
2023/01/25 08:16:52;;;;;;;74.90;30.90;;;;;;;-0.51;100.00;103195.41;5059307;28;20063;-80
2023/01/25 08:19:19;;;;;;;76.03;32.75;;;;;;;-0.48;100.00;103185.16;5044740;28;20044;-82
2023/01/25 08:21:44;;;;;;;76.85;31.35;;;;;;;-0.45;100.00;103190.22;5060529;28;20786;-80
2023/01/25 08:24:10;;;;;;;73.82;31.83;;;;;;;-0.43;100.00;103191.84;5030068;28;20075;-82
2023/01/25 08:26:36;;;;;;;75.80;32.40;;;;;;;-0.48;100.00;103188.53;5058856;28;20071;-81
2023/01/25 08:29:02;;;;;;;83.10;31.55;;;;;;;-0.46;100.00;103191.91;5048517;28;20072;-80
2023/01/25 08:31:30;;;;;;;81.75;32.58;;;;;;;-0.47;100.00;103189.38;5047456;28;20029;-81
2023/01/25 08:33:57;;;;;;;77.72;32.25;;;;;;;-0.48;100.00;103183.44;5046746;28;20037;-81
2023/01/25 08:36:23;;;;;;;79.95;32.20;;;;;;;-0.49;100.00;103186.00;5031195;28;20017;-79
2023/01/25 08:38:56;;;;;;;78.90;33.15;;;;;;;-0.43;100.00;103183.38;5060387;28;20036;-81
2023/01/25 08:41:23;;;;;;;70.68;29.65;;;;;;;-0.43;100.00;103179.13;5046078;28;20036;-81
2023/01/25 08:43:51;;;;;;;66.25;27.70;;;;;;;-0.43;100.00;103184.22;5045482;28;20486;-82
2023/01/25 08:46:17;;;;;;;71.57;28.95;;;;;;;-0.26;100.00;103183.91;5049381;28;20495;-82
2023/01/25 08:48:42;;;;;;;70.82;27.77;;;;;;;-0.26;100.00;103186.47;5047500;28;20681;-81
2023/01/25 08:51:11;;;;;;;78.93;28.95;;;;;;;-0.40;100.00;103190.97;5050788;28;20401;-82
2023/01/25 08:53:36;;;;;;;65.78;26.80;;;;;;;-0.42;100.00;103185.88;5045020;28;20052;-81
2023/01/25 08:56:04;;;;;;;68.45;28.73;;;;;;;-0.45;100.00;103183.41;5060592;28;20033;-80
2023/01/25 08:58:30;;;;;;;73.07;29.30;;;;;;;-0.43;100.00;103178.28;5045496;28;20068;-82
2023/01/25 09:01:04;;;;;;;70.75;29.83;;;;;;;-0.38;100.00;103181.56;5029206;28;20170;-81
2023/01/25 09:03:30;;;;;;;71.32;28.95;;;;;;;-0.40;100.00;103179.06;5047333;28;20517;-79
2023/01/25 09:05:56;;;;;;;70.43;29.52;;;;;;;-0.43;100.00;103181.66;5039413;28;20106;-83
2023/01/25 09:08:22;;;;;;;73.28;29.70;;;;;;;-0.44;100.00;103174.03;5064101;28;20025;-82
2023/01/25 09:10:47;;;;;;;83.07;31.52;;;;;;;-0.41;100.00;103176.53;5040538;28;20037;-81
2023/01/25 09:13:13;;;;;;;76.13;31.52;;;;;;;-0.40;100.00;103173.97;5047504;28;20041;-82
2023/01/25 09:15:39;;;;;;;76.38;30.65;;;;;;;-0.40;100.00;103165.47;5040692;28;20030;-81
2023/01/25 09:18:04;;;;;;;76.78;30.95;;;;;;;-0.36;100.00;103168.81;5040218;28;20127;-82
2023/01/25 09:20:30;;;;;;;72.63;31.60;;;;;;;-0.38;100.00;103176.47;5062579;28;20048;-82
2023/01/25 09:22:55;;;;;;;77.38;32.42;;;;;;;-0.36;100.00;103167.09;5042316;28;20049;-81
2023/01/25 09:25:20;;;;;;;78.60;31.88;;;;;;;-0.34;100.00;103169.59;5044099;28;20056;-82
2023/01/25 09:27:52;;;;;;;77.65;32.20;;;;;;;-0.40;100.00;103162.91;5048727;28;20040;-82
2023/01/25 09:30:18;;;;;;;75.25;30.65;;;;;;;-0.41;100.00;103164.63;5042863;28;20128;-80
2023/01/25 09:32:44;;;;;;;82.20;32.95;;;;;;;-0.31;100.00;103160.19;5057560;28;20770;-82
2023/01/25 09:35:09;;;;;;;81.80;35.25;;;;;;;-0.24;100.00;103160.94;5045426;28;20521;-79
2023/01/25 09:37:35;;;;;;;83.18;33.80;;;;;;;-0.33;100.00;103164.50;5061815;28;20054;-80
2023/01/25 09:40:03;;;;;;;79.22;31.75;;;;;;;-0.35;100.00;103166.22;5061922;28;20096;-80
2023/01/25 09:43:02;;;;;;;78.13;34.05;;;;;;;-0.27;100.00;103150.78;5060071;28;20048;-82
2023/01/25 09:45:32;;;;;;;88.07;35.47;;;;;;;-0.33;100.00;103146.63;5045399;28;20118;-81
2023/01/25 09:48:09;;;;;;;82.47;33.13;;;;;;;-0.37;100.00;103141.63;5046192;28;20090;-81
2023/01/25 09:50:48;;;;;;;73.88;31.08;;;;;;;-0.36;100.00;103133.94;5061597;28;20124;-82
2023/01/25 09:53:23;;;;;;;79.25;34.40;;;;;;;-0.42;100.00;103141.69;5052886;28;20103;-82
2023/01/25 09:55:58;;;;;;;77.30;31.92;;;;;;;-0.41;100.00;103135.75;5045354;28;20045;-80
2023/01/25 09:58:30;;;;;;;80.53;33.00;;;;;;;-0.30;100.00;103136.41;5049635;28;20067;-83
2023/01/25 10:01:14;;;;;;;93.65;32.55;;;;;;;-0.34;100.00;103131.38;5043470;28;20055;-82
2023/01/25 10:03:47;;;;;;;78.95;32.13;;;;;;;-0.42;100.00;103139.16;5070015;28;20041;-82
2023/01/25 10:06:15;;;;;;;70.90;30.58;;;;;;;-0.44;100.00;103135.78;5033495;28;20025;-83
2023/01/25 10:08:52;;;;;;;80.95;32.45;;;;;;;-0.41;100.00;103138.31;5050997;28;20040;-81
2023/01/25 10:11:31;;;;;;;78.25;31.25;;;;;;;-0.40;100.00;103129.75;5060171;28;20115;-81
2023/01/25 10:13:58;;;;;;;73.90;31.52;;;;;;;-0.36;100.00;103130.56;5044350;28;20045;-82
2023/01/25 10:16:42;;;;;;;85.85;33.92;;;;;;;-0.33;100.00;103126.25;5034784;28;20200;-82
2023/01/25 10:19:29;;;;;;;98.43;36.40;;;;;;;-0.39;100.00;103131.47;5053257;28;20493;-82
2023/01/25 10:22:03;;;;;;;87.18;35.22;;;;;;;-0.34;100.00;103124.56;5046290;28;20490;-82
2023/01/25 10:24:51;;;;;;;87.15;34.45;;;;;;;-0.27;100.00;103125.28;5049901;28;20048;-82
2023/01/25 10:27:58;;;;;;;80.88;33.55;;;;;;;-0.16;100.00;103125.09;5059023;28;20127;-82
2023/01/25 10:30:50;;;;;;;86.45;34.55;;;;;;;-0.28;100.00;103126.16;5029515;28;20409;-80
2023/01/25 10:33:18;;;;;;;90.70;34.55;;;;;;;-0.32;100.00;103121.97;5049393;28;20039;-82
2023/01/25 10:35:46;;;;;;;84.05;33.42;;;;;;;-0.25;100.00;103123.53;5047232;28;20849;-81
2023/01/25 10:38:41;;;;;;;86.90;35.75;;;;;;;-0.14;100.00;103108.88;5054623;28;20040;-82
2023/01/25 10:41:13;;;;;;;87.88;35.33;;;;;;;-0.24;100.00;103099.75;5063610;28;20037;-83
2023/01/25 10:43:38;;;;;;;79.28;33.60;;;;;;;-0.18;100.00;103097.06;5031605;28;20399;-80
2023/01/25 10:46:18;;;;;;;97.07;35.40;;;;;;;-0.11;100.00;103093.53;5046011;28;20032;-80
2023/01/25 10:48:43;;;;;;;87.85;34.70;;;;;;;-0.21;100.00;103097.09;5048029;28;20432;-82
2023/01/25 10:51:26;;;;;;;82.47;33.83;;;;;;;-0.31;100.00;103091.34;5035885;28;20039;-81
2023/01/25 10:54:04;;;;;;;91.18;36.72;;;;;;;-0.23;100.00;103081.88;5049831;28;20036;-83
2023/01/25 10:56:34;;;;;;;87.65;34.70;;;;;;;-0.28;100.00;103090.47;5064213;28;20093;-82
2023/01/25 10:59:16;;;;;;;86.57;32.97;;;;;;;-0.31;100.00;103078.59;5050247;28;20045;-82
2023/01/25 11:01:42;;;;;;;83.70;32.53;;;;;;;-0.27;100.00;103077.66;5046387;28;20040;-82
2023/01/25 11:04:30;;;;;;;84.22;33.05;;;;;;;-0.28;100.00;103081.09;5048169;28;20428;-82
2023/01/25 11:06:56;;;;;;;92.63;35.03;;;;;;;-0.32;100.00;103063.31;5052918;28;20064;-82
2023/01/25 11:09:21;;;;;;;92.70;35.67;;;;;;;-0.29;100.00;103064.09;5034639;28;20074;-81
2023/01/25 11:11:56;;;;;;;91.28;35.45;;;;;;;-0.06;100.00;103058.56;5033530;28;20129;-82
2023/01/25 11:14:26;;;;;;;83.78;33.85;;;;;;;0.04;100.00;103055.78;5049579;28;20087;-81
2023/01/25 11:16:53;;;;;;;84.65;31.98;;;;;;;-0.20;100.00;103056.28;5046528;28;20577;-81
2023/01/25 11:19:34;;;;;;;87.30;33.70;;;;;;;-0.28;100.00;103059.88;5045070;28;20037;-82
2023/01/25 11:22:02;;;;;;;79.47;32.55;;;;;;;-0.28;100.00;103049.66;5047244;28;20041;-82